sensor_id;sensor_type;location;lat;lon;timestamp;pressure;altitude;pressure_sealevel;temperature;humidity
11678;BME280;5895;41.950;24.372;2022-12-29T00:00:13;87499.63;;;0.77;74.38
11678;BME280;5895;41.950;24.372;2022-12-29T00:02:41;87501.88;;;0.80;74.59
11678;BME280;5895;41.950;24.372;2022-12-29T00:05:09;87508.88;;;0.78;73.83
11678;BME280;5895;41.950;24.372;2022-12-29T00:07:36;87510.50;;;0.79;73.57
11678;BME280;5895;41.950;24.372;2022-12-29T00:10:05;87506.66;;;0.75;72.82
11678;BME280;5895;41.950;24.372;2022-12-29T00:12:33;87506.59;;;0.67;71.42
11678;BME280;5895;41.950;24.372;2022-12-29T00:15:15;87513.78;;;0.63;72.19
11678;BME280;5895;41.950;24.372;2022-12-29T00:18:00;87513.00;;;0.63;73.90
11678;BME280;5895;41.950;24.372;2022-12-29T00:20:27;87500.88;;;0.65;73.91
11678;BME280;5895;41.950;24.372;2022-12-29T00:23:12;87505.97;;;0.65;73.59
11678;BME280;5895;41.950;24.372;2022-12-29T00:25:56;87506.25;;;0.62;74.73
11678;BME280;5895;41.950;24.372;2022-12-29T00:28:41;87516.03;;;0.66;74.01
11678;BME280;5895;41.950;24.372;2022-12-29T00:31:27;87518.44;;;0.68;74.41
11678;BME280;5895;41.950;24.372;2022-12-29T00:34:11;87511.06;;;0.65;73.71
11678;BME280;5895;41.950;24.372;2022-12-29T00:36:56;87514.09;;;0.60;73.20
11678;BME280;5895;41.950;24.372;2022-12-29T00:39:24;87513.59;;;0.57;72.29
11678;BME280;5895;41.950;24.372;2022-12-29T00:42:08;87515.81;;;0.51;72.98
11678;BME280;5895;41.950;24.372;2022-12-29T00:44:58;87516.09;;;0.48;73.84
11678;BME280;5895;41.950;24.372;2022-12-29T00:47:27;87526.03;;;0.51;73.87
11678;BME280;5895;41.950;24.372;2022-12-29T00:49:55;87530.34;;;0.51;74.15
11678;BME280;5895;41.950;24.372;2022-12-29T00:52:21;87515.03;;;0.51;73.98
11678;BME280;5895;41.950;24.372;2022-12-29T00:54:49;87521.22;;;0.48;73.06
11678;BME280;5895;41.950;24.372;2022-12-29T00:57:16;87522.81;;;0.49;73.97
11678;BME280;5895;41.950;24.372;2022-12-29T00:59:43;87528.59;;;0.51;74.67
11678;BME280;5895;41.950;24.372;2022-12-29T01:02:11;87530.34;;;0.51;74.05
11678;BME280;5895;41.950;24.372;2022-12-29T01:04:40;87536.25;;;0.51;73.61
11678;BME280;5895;41.950;24.372;2022-12-29T01:07:08;87524.38;;;0.42;71.93
11678;BME280;5895;41.950;24.372;2022-12-29T01:09:35;87535.19;;;0.36;71.92
11678;BME280;5895;41.950;24.372;2022-12-29T01:12:20;87530.38;;;0.33;72.37
11678;BME280;5895;41.950;24.372;2022-12-29T01:15:07;87529.47;;;0.34;74.95
11678;BME280;5895;41.950;24.372;2022-12-29T01:17:35;87530.72;;;0.38;75.07
11678;BME280;5895;41.950;24.372;2022-12-29T01:20:05;87525.00;;;0.36;75.61
11678;BME280;5895;41.950;24.372;2022-12-29T01:22:32;87519.91;;;0.44;74.89
11678;BME280;5895;41.950;24.372;2022-12-29T01:25:00;87524.72;;;0.47;75.76
11678;BME280;5895;41.950;24.372;2022-12-29T01:27:27;87517.06;;;0.47;74.39
11678;BME280;5895;41.950;24.372;2022-12-29T01:29:55;87514.81;;;0.44;74.64
11678;BME280;5895;41.950;24.372;2022-12-29T01:32:22;87511.31;;;0.45;75.08
11678;BME280;5895;41.950;24.372;2022-12-29T01:34:49;87509.69;;;0.44;76.38
11678;BME280;5895;41.950;24.372;2022-12-29T01:37:18;87512.59;;;0.49;74.39
11678;BME280;5895;41.950;24.372;2022-12-29T01:39:46;87507.31;;;0.43;73.75
11678;BME280;5895;41.950;24.372;2022-12-29T01:42:16;87522.44;;;0.36;74.13
11678;BME280;5895;41.950;24.372;2022-12-29T01:44:53;87512.22;;;0.36;74.40
11678;BME280;5895;41.950;24.372;2022-12-29T01:47:27;87508.72;;;0.37;75.92
11678;BME280;5895;41.950;24.372;2022-12-29T01:49:58;87502.03;;;0.36;74.36
11678;BME280;5895;41.950;24.372;2022-12-29T01:52:32;87506.81;;;0.39;76.03
11678;BME280;5895;41.950;24.372;2022-12-29T01:55:01;87502.81;;;0.37;74.89
11678;BME280;5895;41.950;24.372;2022-12-29T01:57:32;87503.94;;;0.34;74.94
11678;BME280;5895;41.950;24.372;2022-12-29T02:00:03;87503.25;;;0.32;74.24
11678;BME280;5895;41.950;24.372;2022-12-29T02:02:33;87501.94;;;0.20;72.49
11678;BME280;5895;41.950;24.372;2022-12-29T02:05:04;87493.31;;;0.21;72.99
11678;BME280;5895;41.950;24.372;2022-12-29T02:07:34;87483.44;;;0.18;74.18
11678;BME280;5895;41.950;24.372;2022-12-29T02:10:02;87492.84;;;0.17;74.60
11678;BME280;5895;41.950;24.372;2022-12-29T02:12:30;87484.72;;;0.22;75.51
11678;BME280;5895;41.950;24.372;2022-12-29T02:15:00;87486.97;;;0.25;76.87
11678;BME280;5895;41.950;24.372;2022-12-29T02:17:41;87479.00;;;0.28;76.95
11678;BME280;5895;41.950;24.372;2022-12-29T02:23:44;87468.59;;;0.21;75.89
11678;BME280;5895;41.950;24.372;2022-12-29T02:26:27;87469.22;;;0.15;74.88
11678;BME280;5895;41.950;24.372;2022-12-29T02:29:19;87475.44;;;0.13;75.08
11678;BME280;5895;41.950;24.372;2022-12-29T02:31:56;87477.94;;;0.05;73.82
11678;BME280;5895;41.950;24.372;2022-12-29T02:34:32;87476.34;;;0.04;74.69
11678;BME280;5895;41.950;24.372;2022-12-29T02:37:07;87477.94;;;0.05;74.78
11678;BME280;5895;41.950;24.372;2022-12-29T02:39:41;87483.03;;;0.05;74.67
11678;BME280;5895;41.950;24.372;2022-12-29T02:42:14;87472.63;;;-0.02;73.04
11678;BME280;5895;41.950;24.372;2022-12-29T02:44:55;87471.19;;;-0.05;74.50
11678;BME280;5895;41.950;24.372;2022-12-29T02:47:32;87476.31;;;-0.05;74.69
11678;BME280;5895;41.950;24.372;2022-12-29T02:50:06;87475.63;;;-0.07;73.79
11678;BME280;5895;41.950;24.372;2022-12-29T02:52:38;87474.03;;;-0.08;74.31
11678;BME280;5895;41.950;24.372;2022-12-29T02:55:08;87468.50;;;-0.03;74.15
11678;BME280;5895;41.950;24.372;2022-12-29T02:57:36;87465.50;;;0.02;75.10
11678;BME280;5895;41.950;24.372;2022-12-29T03:00:06;87464.22;;;0.06;75.92
11678;BME280;5895;41.950;24.372;2022-12-29T03:03:04;87466.31;;;0.10;78.31
11678;BME280;5895;41.950;24.372;2022-12-29T03:06:03;87463.63;;;0.12;78.71
11678;BME280;5895;41.950;24.372;2022-12-29T03:08:40;87462.00;;;0.11;75.61
11678;BME280;5895;41.950;24.372;2022-12-29T03:11:12;87464.09;;;0.07;75.14
11678;BME280;5895;41.950;24.372;2022-12-29T03:13:57;87457.84;;;0.02;73.52
11678;BME280;5895;41.950;24.372;2022-12-29T03:16:44;87461.63;;;-0.03;74.03
11678;BME280;5895;41.950;24.372;2022-12-29T03:19:19;87459.25;;;-0.04;74.75
11678;BME280;5895;41.950;24.372;2022-12-29T03:21:51;87469.88;;;-0.09;73.98
11678;BME280;5895;41.950;24.372;2022-12-29T03:24:40;87464.78;;;-0.09;75.25
11678;BME280;5895;41.950;24.372;2022-12-29T03:27:12;87457.13;;;-0.09;76.16
11678;BME280;5895;41.950;24.372;2022-12-29T03:29:45;87466.22;;;-0.06;75.57
11678;BME280;5895;41.950;24.372;2022-12-29T03:32:19;87468.13;;;-0.08;75.01
11678;BME280;5895;41.950;24.372;2022-12-29T03:34:49;87462.25;;;-0.09;75.47
11678;BME280;5895;41.950;24.372;2022-12-29T03:37:21;87460.31;;;-0.07;76.44
11678;BME280;5895;41.950;24.372;2022-12-29T03:39:51;87457.66;;;-0.05;76.90
11678;BME280;5895;41.950;24.372;2022-12-29T03:42:20;87463.22;;;-0.02;76.64
11678;BME280;5895;41.950;24.372;2022-12-29T03:44:53;87453.81;;;-0.01;76.67
11678;BME280;5895;41.950;24.372;2022-12-29T03:47:22;87462.28;;;-0.01;75.64
11678;BME280;5895;41.950;24.372;2022-12-29T03:49:51;87460.84;;;-0.03;74.98
11678;BME280;5895;41.950;24.372;2022-12-29T03:52:19;87460.03;;;-0.04;74.93
11678;BME280;5895;41.950;24.372;2022-12-29T03:54:46;87453.97;;;-0.03;76.00
11678;BME280;5895;41.950;24.372;2022-12-29T03:57:14;87462.75;;;-0.05;76.33
11678;BME280;5895;41.950;24.372;2022-12-29T03:59:41;87463.22;;;-0.02;75.91
11678;BME280;5895;41.950;24.372;2022-12-29T04:02:09;87465.13;;;-0.04;75.68
11678;BME280;5895;41.950;24.372;2022-12-29T04:04:36;87468.66;;;-0.05;75.91
11678;BME280;5895;41.950;24.372;2022-12-29T04:07:05;87461.13;;;-0.06;75.81
11678;BME280;5895;41.950;24.372;2022-12-29T04:09:33;87458.72;;;-0.08;75.45
11678;BME280;5895;41.950;24.372;2022-12-29T04:12:00;87459.53;;;-0.07;76.66
11678;BME280;5895;41.950;24.372;2022-12-29T04:14:27;87465.06;;;-0.12;76.33
11678;BME280;5895;41.950;24.372;2022-12-29T04:16:55;87472.59;;;-0.10;75.22
11678;BME280;5895;41.950;24.372;2022-12-29T04:19:22;87474.34;;;-0.11;75.60
11678;BME280;5895;41.950;24.372;2022-12-29T04:21:50;87474.63;;;-0.14;74.50
11678;BME280;5895;41.950;24.372;2022-12-29T04:24:19;87476.56;;;-0.16;74.75
11678;BME280;5895;41.950;24.372;2022-12-29T04:26:46;87471.56;;;-0.17;75.46
11678;BME280;5895;41.950;24.372;2022-12-29T04:29:14;87480.06;;;-0.17;76.11
11678;BME280;5895;41.950;24.372;2022-12-29T04:31:41;87480.53;;;-0.13;76.69
11678;BME280;5895;41.950;24.372;2022-12-29T04:34:09;87479.44;;;-0.11;77.18
11678;BME280;5895;41.950;24.372;2022-12-29T04:36:36;87482.47;;;-0.07;77.25
11678;BME280;5895;41.950;24.372;2022-12-29T04:39:05;87480.44;;;-0.04;77.28
11678;BME280;5895;41.950;24.372;2022-12-29T04:41:34;87481.25;;;-0.03;77.96
11678;BME280;5895;41.950;24.372;2022-12-29T04:44:01;87486.84;;;0.01;78.00
11678;BME280;5895;41.950;24.372;2022-12-29T04:46:29;87493.56;;;0.02;77.46
11678;BME280;5895;41.950;24.372;2022-12-29T04:48:56;87495.44;;;-0.01;76.28
11678;BME280;5895;41.950;24.372;2022-12-29T04:51:26;87499.25;;;-0.05;75.38
11678;BME280;5895;41.950;24.372;2022-12-29T04:53:53;87494.88;;;-0.12;75.14
11678;BME280;5895;41.950;24.372;2022-12-29T04:56:21;87500.31;;;-0.15;74.81
11678;BME280;5895;41.950;24.372;2022-12-29T04:58:50;87505.56;;;-0.17;75.06
11678;BME280;5895;41.950;24.372;2022-12-29T05:01:17;87500.47;;;-0.17;75.97
11678;BME280;5895;41.950;24.372;2022-12-29T05:03:44;87502.69;;;-0.14;76.76
11678;BME280;5895;41.950;24.372;2022-12-29T05:06:12;87494.09;;;-0.13;76.94
11678;BME280;5895;41.950;24.372;2022-12-29T05:08:39;87498.91;;;-0.10;77.07
11678;BME280;5895;41.950;24.372;2022-12-29T05:11:07;87494.44;;;-0.08;77.51
11678;BME280;5895;41.950;24.372;2022-12-29T05:13:34;87498.59;;;-0.07;77.99
11678;BME280;5895;41.950;24.372;2022-12-29T05:16:03;87494.94;;;-0.04;78.15
11678;BME280;5895;41.950;24.372;2022-12-29T05:18:31;87502.44;;;-0.03;78.13
11678;BME280;5895;41.950;24.372;2022-12-29T05:20:58;87497.34;;;-0.03;77.59
11678;BME280;5895;41.950;24.372;2022-12-29T05:23:26;87495.44;;;-0.01;78.29
11678;BME280;5895;41.950;24.372;2022-12-29T05:25:53;87497.19;;;-0.01;76.83
11678;BME280;5895;41.950;24.372;2022-12-29T05:28:21;87505.94;;;-0.04;77.23
11678;BME280;5895;41.950;24.372;2022-12-29T05:30:48;87505.44;;;-0.07;76.43
11678;BME280;5895;41.950;24.372;2022-12-29T05:33:18;87502.06;;;-0.16;75.47
11678;BME280;5895;41.950;24.372;2022-12-29T05:35:46;87501.38;;;-0.18;75.42
11678;BME280;5895;41.950;24.372;2022-12-29T05:38:14;87500.47;;;-0.17;75.72
11678;BME280;5895;41.950;24.372;2022-12-29T05:40:42;87496.16;;;-0.16;75.91
11678;BME280;5895;41.950;24.372;2022-12-29T05:43:10;87502.19;;;-0.17;75.30
11678;BME280;5895;41.950;24.372;2022-12-29T05:45:37;87501.34;;;-0.26;74.85
11678;BME280;5895;41.950;24.372;2022-12-29T05:48:05;87501.34;;;-0.26;75.22
11678;BME280;5895;41.950;24.372;2022-12-29T05:50:34;87502.28;;;-0.27;76.18
11678;BME280;5895;41.950;24.372;2022-12-29T05:53:01;87501.34;;;-0.26;75.60
11678;BME280;5895;41.950;24.372;2022-12-29T05:55:29;87506.72;;;-0.29;75.47
11678;BME280;5895;41.950;24.372;2022-12-29T05:57:56;87513.72;;;-0.31;75.54
11678;BME280;5895;41.950;24.372;2022-12-29T06:00:24;87502.28;;;-0.27;75.82
11678;BME280;5895;41.950;24.372;2022-12-29T06:02:51;87504.84;;;-0.27;76.69
11678;BME280;5895;41.950;24.372;2022-12-29T06:05:19;87502.13;;;-0.25;76.35
11678;BME280;5895;41.950;24.372;2022-12-29T06:07:48;87506.44;;;-0.26;76.10
11678;BME280;5895;41.950;24.372;2022-12-29T06:10:15;87507.69;;;-0.30;75.73
11678;BME280;5895;41.950;24.372;2022-12-29T06:12:43;87510.22;;;-0.30;77.12
11678;BME280;5895;41.950;24.372;2022-12-29T06:15:10;87505.13;;;-0.30;76.38
11678;BME280;5895;41.950;24.372;2022-12-29T06:17:38;87510.91;;;-0.28;76.75
11678;BME280;5895;41.950;24.372;2022-12-29T06:20:07;87510.44;;;-0.23;76.81
11678;BME280;5895;41.950;24.372;2022-12-29T06:22:35;87514.44;;;-0.21;76.71
11678;BME280;5895;41.950;24.372;2022-12-29T06:25:05;87511.59;;;-0.18;77.33
11678;BME280;5895;41.950;24.372;2022-12-29T06:27:33;87510.94;;;-0.20;76.76
11678;BME280;5895;41.950;24.372;2022-12-29T06:30:00;87512.84;;;-0.22;75.80
11678;BME280;5895;41.950;24.372;2022-12-29T06:32:28;87516.31;;;-0.23;75.45
11678;BME280;5895;41.950;24.372;2022-12-29T06:34:56;87517.00;;;-0.21;76.41
11678;BME280;5895;41.950;24.372;2022-12-29T06:37:23;87525.97;;;-0.17;76.28
11678;BME280;5895;41.950;24.372;2022-12-29T06:39:51;87525.97;;;-0.17;76.06
11678;BME280;5895;41.950;24.372;2022-12-29T06:42:20;87527.56;;;-0.16;76.87
11678;BME280;5895;41.950;24.372;2022-12-29T06:44:47;87524.03;;;-0.15;76.11
11678;BME280;5895;41.950;24.372;2022-12-29T06:47:15;87533.94;;;-0.12;77.27
11678;BME280;5895;41.950;24.372;2022-12-29T06:49:42;87530.16;;;-0.08;78.15
11678;BME280;5895;41.950;24.372;2022-12-29T06:52:10;87534.97;;;-0.05;77.23
11678;BME280;5895;41.950;24.372;2022-12-29T06:54:37;87527.66;;;0.01;76.67
11678;BME280;5895;41.950;24.372;2022-12-29T06:57:05;87532.28;;;0.05;77.34
11678;BME280;5895;41.950;24.372;2022-12-29T06:59:34;87535.06;;;0.12;77.44
11678;BME280;5895;41.950;24.372;2022-12-29T07:02:02;87537.94;;;0.17;77.81
11678;BME280;5895;41.950;24.372;2022-12-29T07:04:29;87537.69;;;0.28;78.17
11678;BME280;5895;41.950;24.372;2022-12-29T07:06:57;87540.06;;;0.56;76.53
11678;BME280;5895;41.950;24.372;2022-12-29T07:09:24;87542.94;;;0.87;77.40
11678;BME280;5895;41.950;24.372;2022-12-29T07:11:52;87538.38;;;1.15;76.11
11678;BME280;5895;41.950;24.372;2022-12-29T07:14:19;87532.22;;;1.42;75.07
11678;BME280;5895;41.950;24.372;2022-12-29T07:16:48;87532.88;;;1.68;73.53
11678;BME280;5895;41.950;24.372;2022-12-29T07:19:15;87535.63;;;1.91;72.59
11678;BME280;5895;41.950;24.372;2022-12-29T07:21:43;87527.94;;;2.16;73.31
11678;BME280;5895;41.950;24.372;2022-12-29T07:24:10;87529.19;;;2.36;72.87
11678;BME280;5895;41.950;24.372;2022-12-29T07:26:38;87528.03;;;2.55;72.08
11678;BME280;5895;41.950;24.372;2022-12-29T07:29:05;87532.63;;;2.76;71.94
11678;BME280;5895;41.950;24.372;2022-12-29T07:31:32;87532.84;;;2.97;72.38
11678;BME280;5895;41.950;24.372;2022-12-29T07:34:01;87530.50;;;3.18;72.12
11678;BME280;5895;41.950;24.372;2022-12-29T07:36:29;87530.25;;;3.36;71.17
11678;BME280;5895;41.950;24.372;2022-12-29T07:38:56;87525.53;;;3.56;70.87
11678;BME280;5895;41.950;24.372;2022-12-29T07:41:24;87523.66;;;3.73;70.96
11678;BME280;5895;41.950;24.372;2022-12-29T07:43:51;87529.47;;;3.90;71.80
11678;BME280;5895;41.950;24.372;2022-12-29T07:46:19;87532.25;;;4.03;72.00
11678;BME280;5895;41.950;24.372;2022-12-29T07:48:46;87528.25;;;4.23;71.03
11678;BME280;5895;41.950;24.372;2022-12-29T07:51:15;87532.91;;;4.43;70.29
11678;BME280;5895;41.950;24.372;2022-12-29T07:53:42;87524.34;;;4.65;69.69
11678;BME280;5895;41.950;24.372;2022-12-29T07:56:10;87529.59;;;4.87;69.14
11678;BME280;5895;41.950;24.372;2022-12-29T07:58:37;87533.25;;;5.07;68.18
11678;BME280;5895;41.950;24.372;2022-12-29T08:01:05;87537.03;;;5.26;67.62
11678;BME280;5895;41.950;24.372;2022-12-29T08:03:32;87534.47;;;5.41;68.51
11678;BME280;5895;41.950;24.372;2022-12-29T08:05:59;87538.78;;;5.55;68.05
11678;BME280;5895;41.950;24.372;2022-12-29T08:08:28;87547.53;;;5.75;67.42
11678;BME280;5895;41.950;24.372;2022-12-29T08:10:56;87548.94;;;5.93;67.61
11678;BME280;5895;41.950;24.372;2022-12-29T08:13:23;87543.81;;;6.14;66.96
11678;BME280;5895;41.950;24.372;2022-12-29T08:15:50;87540.44;;;6.35;66.73
11678;BME280;5895;41.950;24.372;2022-12-29T08:18:18;87542.78;;;6.51;65.80
11678;BME280;5895;41.950;24.372;2022-12-29T08:20:46;87544.25;;;6.67;66.70
11678;BME280;5895;41.950;24.372;2022-12-29T08:23:13;87548.16;;;6.84;65.52
11678;BME280;5895;41.950;24.372;2022-12-29T08:25:42;87545.13;;;7.02;66.81
11678;BME280;5895;41.950;24.372;2022-12-29T08:28:09;87548.78;;;7.14;65.02
11678;BME280;5895;41.950;24.372;2022-12-29T08:30:37;87548.50;;;7.31;64.11
11678;BME280;5895;41.950;24.372;2022-12-29T08:33:04;87545.41;;;7.49;63.79
11678;BME280;5895;41.950;24.372;2022-12-29T08:35:32;87544.25;;;7.58;63.50
11678;BME280;5895;41.950;24.372;2022-12-29T08:37:59;87548.25;;;7.67;62.61
11678;BME280;5895;41.950;24.372;2022-12-29T08:40:27;87542.31;;;7.73;62.58
11678;BME280;5895;41.950;24.372;2022-12-29T08:42:56;87541.94;;;7.76;63.88
11678;BME280;5895;41.950;24.372;2022-12-29T08:45:23;87548.56;;;7.92;62.29
11678;BME280;5895;41.950;24.372;2022-12-29T08:47:50;87551.22;;;8.12;62.66
11678;BME280;5895;41.950;24.372;2022-12-29T08:50:18;87552.44;;;8.29;61.27
11678;BME280;5895;41.950;24.372;2022-12-29T08:52:45;87550.91;;;8.41;61.02
11678;BME280;5895;41.950;24.372;2022-12-29T08:55:13;87544.19;;;8.54;61.37
11678;BME280;5895;41.950;24.372;2022-12-29T08:57:40;87543.59;;;8.71;60.41
11678;BME280;5895;41.950;24.372;2022-12-29T09:00:11;87536.63;;;8.85;60.58
11678;BME280;5895;41.950;24.372;2022-12-29T09:02:38;87534.88;;;8.92;61.01
11678;BME280;5895;41.950;24.372;2022-12-29T09:05:07;87527.88;;;8.99;59.76
11678;BME280;5895;41.950;24.372;2022-12-29T09:07:35;87528.91;;;8.98;60.43
11678;BME280;5895;41.950;24.372;2022-12-29T09:10:03;87526.28;;;8.92;59.69
11678;BME280;5895;41.950;24.372;2022-12-29T09:12:32;87522.69;;;8.86;59.98
11678;BME280;5895;41.950;24.372;2022-12-29T09:14:59;87525.13;;;8.81;60.30
11678;BME280;5895;41.950;24.372;2022-12-29T09:17:28;87525.13;;;8.81;61.67
11678;BME280;5895;41.950;24.372;2022-12-29T09:20:09;87511.78;;;8.78;60.17
11678;BME280;5895;41.950;24.372;2022-12-29T09:22:36;87512.75;;;8.83;59.72
11678;BME280;5895;41.950;24.372;2022-12-29T09:25:04;87517.34;;;8.94;59.61
11678;BME280;5895;41.950;24.372;2022-12-29T09:27:32;87518.13;;;9.01;59.52
11678;BME280;5895;41.950;24.372;2022-12-29T09:30:00;87519.53;;;9.11;59.44
11678;BME280;5895;41.950;24.372;2022-12-29T09:32:29;87516.72;;;9.19;59.72
11678;BME280;5895;41.950;24.372;2022-12-29T09:34:56;87515.09;;;9.31;58.71
11678;BME280;5895;41.950;24.372;2022-12-29T09:37:24;87508.72;;;9.40;58.80
11678;BME280;5895;41.950;24.372;2022-12-29T09:39:51;87502.88;;;9.58;57.96
11678;BME280;5895;41.950;24.372;2022-12-29T09:42:22;87496.56;;;9.92;57.91
11678;BME280;5895;41.950;24.372;2022-12-29T09:45:00;87492.88;;;10.20;57.42
11678;BME280;5895;41.950;24.372;2022-12-29T09:47:31;87483.63;;;10.37;56.18
11678;BME280;5895;41.950;24.372;2022-12-29T09:50:01;87479.34;;;10.49;55.69
11678;BME280;5895;41.950;24.372;2022-12-29T09:52:32;87481.31;;;10.54;56.14
11678;BME280;5895;41.950;24.372;2022-12-29T09:55:05;87478.16;;;10.77;55.63
11678;BME280;5895;41.950;24.372;2022-12-29T09:57:39;87481.44;;;11.16;54.85
11678;BME280;5895;41.950;24.372;2022-12-29T10:00:12;87472.78;;;11.47;53.57
11678;BME280;5895;41.950;24.372;2022-12-29T10:02:48;87468.97;;;11.68;53.52
11678;BME280;5895;41.950;24.372;2022-12-29T10:05:27;87461.09;;;11.93;52.12
11678;BME280;5895;41.950;24.372;2022-12-29T10:08:14;87458.75;;;12.21;51.07
11678;BME280;5895;41.950;24.372;2022-12-29T10:10:53;87462.66;;;12.12;50.55
11678;BME280;5895;41.950;24.372;2022-12-29T10:13:30;87458.13;;;12.37;51.99
11678;BME280;5895;41.950;24.372;2022-12-29T10:16:06;87455.28;;;12.57;50.49
11678;BME280;5895;41.950;24.372;2022-12-29T10:18:52;87448.03;;;12.59;50.53
11678;BME280;5895;41.950;24.372;2022-12-29T10:21:32;87443.63;;;12.71;51.30
11678;BME280;5895;41.950;24.372;2022-12-29T10:24:07;87445.59;;;12.88;50.88
11678;BME280;5895;41.950;24.372;2022-12-29T10:26:39;87446.16;;;13.02;51.41
11678;BME280;5895;41.950;24.372;2022-12-29T10:29:14;87449.81;;;13.12;48.73
11678;BME280;5895;41.950;24.372;2022-12-29T10:31:46;87446.78;;;13.27;51.15
11678;BME280;5895;41.950;24.372;2022-12-29T10:34:20;87445.75;;;13.40;49.19
11678;BME280;5895;41.950;24.372;2022-12-29T10:36:52;87437.94;;;13.52;49.61
11678;BME280;5895;41.950;24.372;2022-12-29T10:39:27;87441.56;;;13.50;48.87
11678;BME280;5895;41.950;24.372;2022-12-29T10:42:04;87441.66;;;13.67;49.02
11678;BME280;5895;41.950;24.372;2022-12-29T10:44:35;87441.22;;;13.70;50.29
11678;BME280;5895;41.950;24.372;2022-12-29T10:47:05;87439.84;;;13.68;50.11
11678;BME280;5895;41.950;24.372;2022-12-29T10:49:39;87435.53;;;13.73;47.34
11678;BME280;5895;41.950;24.372;2022-12-29T10:52:11;87443.94;;;13.75;49.55
11678;BME280;5895;41.950;24.372;2022-12-29T10:54:44;87442.09;;;13.88;48.61
11678;BME280;5895;41.950;24.372;2022-12-29T10:57:18;87437.09;;;13.98;47.31
11678;BME280;5895;41.950;24.372;2022-12-29T10:59:48;87425.00;;;14.20;50.18
11678;BME280;5895;41.950;24.372;2022-12-29T11:02:31;87422.50;;;14.25;45.51
11678;BME280;5895;41.950;24.372;2022-12-29T11:05:10;87421.91;;;14.23;48.42
11678;BME280;5895;41.950;24.372;2022-12-29T11:07:43;87418.56;;;14.40;50.71
11678;BME280;5895;41.950;24.372;2022-12-29T11:10:20;87418.41;;;14.46;47.33
11678;BME280;5895;41.950;24.372;2022-12-29T11:12:56;87416.75;;;14.69;47.91
11678;BME280;5895;41.950;24.372;2022-12-29T11:15:24;87414.72;;;14.71;50.76
11678;BME280;5895;41.950;24.372;2022-12-29T11:17:53;87414.06;;;14.80;50.23
11678;BME280;5895;41.950;24.372;2022-12-29T11:20:33;87417.28;;;14.99;45.37
11678;BME280;5895;41.950;24.372;2022-12-29T11:23:01;87408.66;;;14.99;50.30
11678;BME280;5895;41.950;24.372;2022-12-29T11:25:29;87413.56;;;15.12;50.19
11678;BME280;5895;41.950;24.372;2022-12-29T11:27:59;87419.41;;;15.02;50.19
11678;BME280;5895;41.950;24.372;2022-12-29T11:30:29;87409.34;;;15.11;50.27
11678;BME280;5895;41.950;24.372;2022-12-29T11:32:57;87411.56;;;15.19;50.40
11678;BME280;5895;41.950;24.372;2022-12-29T11:35:35;87413.06;;;15.49;47.06
11678;BME280;5895;41.950;24.372;2022-12-29T11:38:04;87412.81;;;15.67;49.90
11678;BME280;5895;41.950;24.372;2022-12-29T11:40:32;87404.75;;;15.91;49.82
11678;BME280;5895;41.950;24.372;2022-12-29T11:43:05;87400.56;;;16.11;49.53
11678;BME280;5895;41.950;24.372;2022-12-29T11:45:34;87400.63;;;16.17;49.31
11678;BME280;5895;41.950;24.372;2022-12-29T11:48:07;87405.94;;;16.00;47.50
11678;BME280;5895;41.950;24.372;2022-12-29T11:50:39;87403.03;;;15.79;48.13
11678;BME280;5895;41.950;24.372;2022-12-29T11:53:16;87405.44;;;15.64;45.87
11678;BME280;5895;41.950;24.372;2022-12-29T11:55:51;87398.38;;;15.48;48.27
11678;BME280;5895;41.950;24.372;2022-12-29T11:58:20;87398.38;;;15.48;50.82
11678;BME280;5895;41.950;24.372;2022-12-29T12:00:49;87394.66;;;15.60;49.99
11678;BME280;5895;41.950;24.372;2022-12-29T12:03:19;87399.44;;;15.85;49.47
11678;BME280;5895;41.950;24.372;2022-12-29T12:05:52;87392.94;;;16.10;48.66
11678;BME280;5895;41.950;24.372;2022-12-29T12:08:28;87393.53;;;15.73;46.46
11678;BME280;5895;41.950;24.372;2022-12-29T12:11:06;87390.56;;;15.31;47.23
11678;BME280;5895;41.950;24.372;2022-12-29T12:13:39;87392.22;;;14.87;50.01
11678;BME280;5895;41.950;24.372;2022-12-29T12:16:13;87389.13;;;14.56;49.75
11678;BME280;5895;41.950;24.372;2022-12-29T12:18:46;87396.06;;;14.22;49.83
11678;BME280;5895;41.950;24.372;2022-12-29T12:21:27;87398.00;;;13.86;47.77
11678;BME280;5895;41.950;24.372;2022-12-29T12:24:27;87402.34;;;13.57;47.10
11678;BME280;5895;41.950;24.372;2022-12-29T12:27:02;87392.19;;;13.32;52.43
11678;BME280;5895;41.950;24.372;2022-12-29T12:29:38;87395.78;;;13.08;50.94
11678;BME280;5895;41.950;24.372;2022-12-29T12:32:12;87387.03;;;12.90;50.99
11678;BME280;5895;41.950;24.372;2022-12-29T12:34:43;87389.56;;;12.85;53.05
11678;BME280;5895;41.950;24.372;2022-12-29T12:37:23;87393.28;;;13.01;49.80
11678;BME280;5895;41.950;24.372;2022-12-29T12:43:00;87390.66;;;13.01;51.07
11678;BME280;5895;41.950;24.372;2022-12-29T12:45:45;87390.47;;;12.91;50.47
11678;BME280;5895;41.950;24.372;2022-12-29T12:48:29;87388.41;;;12.93;49.42
11678;BME280;5895;41.950;24.372;2022-12-29T12:51:08;87385.81;;;13.05;50.92
11678;BME280;5895;41.950;24.372;2022-12-29T12:54:05;87393.63;;;12.93;48.75
11678;BME280;5895;41.950;24.372;2022-12-29T12:56:50;87394.41;;;13.17;49.15
11678;BME280;5895;41.950;24.372;2022-12-29T12:59:34;87389.44;;;13.39;48.87
11678;BME280;5895;41.950;24.372;2022-12-29T13:02:20;87392.31;;;13.26;49.12
11678;BME280;5895;41.950;24.372;2022-12-29T13:11:01;87399.03;;;13.73;49.95
11678;BME280;5895;41.950;24.372;2022-12-29T13:13:54;87390.34;;;13.96;49.03
11678;BME280;5895;41.950;24.372;2022-12-29T13:16:31;87388.06;;;14.00;48.87
11678;BME280;5895;41.950;24.372;2022-12-29T13:19:05;87397.56;;;13.77;49.46
11678;BME280;5895;41.950;24.372;2022-12-29T13:21:47;87400.59;;;13.74;49.14
11678;BME280;5895;41.950;24.372;2022-12-29T13:24:25;87393.69;;;13.80;49.49
11678;BME280;5895;41.950;24.372;2022-12-29T13:27:02;87395.34;;;13.98;48.99
11678;BME280;5895;41.950;24.372;2022-12-29T13:29:34;87399.63;;;14.04;49.71
11678;BME280;5895;41.950;24.372;2022-12-29T13:32:19;87396.19;;;14.15;47.66
11678;BME280;5895;41.950;24.372;2022-12-29T13:35:00;87396.41;;;14.25;48.55
11678;BME280;5895;41.950;24.372;2022-12-29T13:37:34;87397.44;;;14.41;50.22
11678;BME280;5895;41.950;24.372;2022-12-29T13:40:11;87393.81;;;14.54;47.56